createdAt,value
2023-01-17T00:02:44.427Z,98221.38
2023-01-17T00:06:05.326Z,98217.31
2023-01-17T00:09:29.493Z,98218.38
2023-01-17T00:12:31.790Z,98214.59
2023-01-17T00:15:38.232Z,98212.47
2023-01-17T00:19:00.383Z,98216.06
2023-01-17T00:22:26.945Z,98212.38
2023-01-17T00:25:51.250Z,98211.81
2023-01-17T00:28:53.469Z,98206.69
2023-01-17T00:31:55.620Z,98205.34
2023-01-17T00:34:57.786Z,98210.56
2023-01-17T00:38:11.296Z,98207.94
2023-01-17T00:41:15.247Z,98197.00
2023-01-17T00:44:35.730Z,98204.09
2023-01-17T00:47:57.012Z,98206.69
2023-01-17T00:51:17.837Z,98207.75
2023-01-17T00:54:38.997Z,98211.72
2023-01-17T00:58:01.933Z,98208.53
2023-01-17T01:01:26.373Z,98197.00
2023-01-17T01:04:47.768Z,98189.47
2023-01-17T01:08:08.835Z,98194.91
2023-01-17T01:11:32.997Z,98200.97
2023-01-17T01:14:53.730Z,98185.09
2023-01-17T01:18:14.549Z,98198.44
2023-01-17T01:21:34.933Z,98195.81
2023-01-17T01:24:55.607Z,98193.56
2023-01-17T01:28:30.973Z,98193.78
2023-01-17T01:31:53.886Z,98200.41
2023-01-17T01:34:56.233Z,98204.25
2023-01-17T01:37:58.505Z,98200.91
2023-01-17T01:41:00.807Z,98206.53
2023-01-17T01:44:25.781Z,98212.72
2023-01-17T01:47:38.622Z,98218.47
2023-01-17T01:50:50.864Z,98223.44
2023-01-17T01:53:59.885Z,98226.56
2023-01-17T01:57:11.003Z,98217.41
2023-01-17T02:00:24.927Z,98206.50
2023-01-17T02:03:32.495Z,98200.75
2023-01-17T02:06:41.827Z,98188.06
2023-01-17T02:09:45.253Z,98171.28
2023-01-17T02:12:48.854Z,98159.00
2023-01-17T02:15:51.072Z,98164.13
2023-01-17T02:19:29.680Z,98154.53
2023-01-17T02:22:51.571Z,98158.63
2023-01-17T02:26:15.282Z,98159.06
2023-01-17T02:29:51.159Z,98165.84
2023-01-17T02:32:56.151Z,98170.97
2023-01-17T02:36:11.296Z,98166.72
2023-01-17T02:39:22.904Z,98165.56
2023-01-17T02:42:30.483Z,98167.94
2023-01-17T02:45:36.246Z,98153.00
2023-01-17T02:48:40.564Z,98143.34
2023-01-17T02:52:20.314Z,98145.28
2023-01-17T02:55:28.606Z,98140.63
2023-01-17T02:59:00.463Z,98134.06
2023-01-17T03:02:24.556Z,98121.84
2023-01-17T03:06:11.821Z,98104.22
2023-01-17T03:09:19.938Z,98100.91
2023-01-17T03:12:22.251Z,98093.19
2023-01-17T03:15:26.376Z,98087.56
2023-01-17T03:18:28.611Z,98079.66
2023-01-17T03:21:30.979Z,98078.22
2023-01-17T03:24:33.227Z,98071.47
2023-01-17T03:27:35.497Z,98070.75
2023-01-17T03:30:37.842Z,98064.69
2023-01-17T03:33:40.156Z,98062.16
2023-01-17T03:36:42.429Z,98062.03
2023-01-17T03:39:44.715Z,98058.13
2023-01-17T03:42:46.980Z,98059.06
2023-01-17T03:45:50.448Z,98052.72
2023-01-17T03:48:53.175Z,98046.03
2023-01-17T03:51:55.476Z,98040.81
2023-01-17T03:54:57.753Z,98040.91
2023-01-17T03:58:00.036Z,98046.03
2023-01-17T04:01:02.349Z,98036.72
2023-01-17T04:04:04.863Z,98035.41
2023-01-17T04:07:09.582Z,98036.91
2023-01-17T04:10:11.865Z,98036.25
2023-01-17T04:13:14.949Z,98037.31
2023-01-17T04:16:22.221Z,98036.44
2023-01-17T04:19:27.681Z,98033.50
2023-01-17T04:22:31.667Z,98033.72
2023-01-17T04:25:34.292Z,98041.34
2023-01-17T04:28:36.573Z,98038.84
2023-01-17T04:31:38.920Z,98035.69
2023-01-17T04:34:41.340Z,98036.94
2023-01-17T04:37:46.842Z,98036.25
2023-01-17T04:40:49.802Z,98034.41
2023-01-17T04:43:52.258Z,98039.53
2023-01-17T04:47:00.277Z,98025.78
2023-01-17T04:50:05.045Z,98033.75
2023-01-17T04:53:07.374Z,98026.41
2023-01-17T04:56:09.689Z,98033.88
2023-01-17T04:59:12.141Z,98038.06
2023-01-17T05:02:14.841Z,98037.25
2023-01-17T05:05:21.300Z,98045.66
2023-01-17T05:08:23.740Z,98040.63
2023-01-17T05:11:26.057Z,98050.44
2023-01-17T05:14:30.627Z,98037.13
2023-01-17T05:17:32.855Z,98047.56
2023-01-17T05:20:37.372Z,98041.09
2023-01-17T05:23:40.627Z,98043.25
2023-01-17T05:26:43.359Z,98039.94
2023-01-17T05:29:45.602Z,98033.94
2023-01-17T05:32:53.602Z,98038.25
2023-01-17T05:35:55.950Z,98045.97
2023-01-17T05:38:58.162Z,98044.41
2023-01-17T05:42:00.425Z,98048.16
2023-01-17T05:45:02.712Z,98050.47
2023-01-17T05:48:05.401Z,98057.66
2023-01-17T05:51:08.998Z,98053.47
2023-01-17T05:54:11.343Z,98063.19
2023-01-17T05:57:13.567Z,98067.22
2023-01-17T06:00:21.844Z,98073.88
2023-01-17T06:03:24.204Z,98086.03
2023-01-17T06:06:27.734Z,98089.69
2023-01-17T06:09:30.007Z,98089.66
2023-01-17T06:12:32.452Z,98092.28
2023-01-17T06:15:36.064Z,98102.88
2023-01-17T06:18:41.421Z,98101.41
2023-01-17T06:21:43.684Z,98089.94
2023-01-17T06:24:49.082Z,98105.38
2023-01-17T06:27:54.446Z,98101.78
2023-01-17T06:30:56.906Z,98100.25
2023-01-17T06:34:05.239Z,98107.19
2023-01-17T06:37:08.278Z,98107.13
2023-01-17T06:40:11.533Z,98108.75
2023-01-17T06:43:13.859Z,98118.13
2023-01-17T06:46:16.311Z,98132.38
2023-01-17T06:49:18.959Z,98129.38
2023-01-17T06:52:21.524Z,98147.16
2023-01-17T06:55:24.770Z,98154.75
2023-01-17T06:58:27.325Z,98166.47
2023-01-17T07:01:29.960Z,98167.16
2023-01-17T07:04:35.481Z,98168.16
2023-01-17T07:07:40.272Z,98180.63
2023-01-17T07:10:47.307Z,98185.31
2023-01-17T07:13:49.801Z,98183.75
2023-01-17T07:16:54.956Z,98191.78
2023-01-17T07:19:57.287Z,98194.09
2023-01-17T07:22:59.757Z,98196.78
2023-01-17T07:26:04.581Z,98210.38
2023-01-17T07:29:06.913Z,98210.00
2023-01-17T07:32:10.995Z,98212.09
2023-01-17T07:35:15.864Z,98218.78
2023-01-17T07:38:20.879Z,98221.47
2023-01-17T07:41:23.233Z,98234.03
2023-01-17T07:44:25.728Z,98247.09
2023-01-17T07:47:31.528Z,98249.03
2023-01-17T07:50:34.915Z,98252.91
2023-01-17T07:53:37.284Z,98261.25
2023-01-17T07:56:40.187Z,98261.50
2023-01-17T07:59:42.440Z,98279.69
2023-01-17T08:02:47.303Z,98277.44
2023-01-17T08:05:55.600Z,98278.69
2023-01-17T08:08:59.554Z,98282.13
2023-01-17T08:12:01.984Z,98285.53
2023-01-17T08:15:05.317Z,98286.56
2023-01-17T08:18:07.738Z,98299.38
2023-01-17T08:21:17.130Z,98308.38
2023-01-17T08:24:19.365Z,98321.66
2023-01-17T08:27:21.692Z,98318.88
2023-01-17T08:30:26.721Z,98332.66
2023-01-17T08:33:28.935Z,98332.31
2023-01-17T08:36:31.454Z,98332.69
2023-01-17T08:39:33.916Z,98334.06
2023-01-17T08:42:41.442Z,98340.25
2023-01-17T08:45:50.840Z,98340.97
2023-01-17T08:48:54.419Z,98338.81
2023-01-17T08:51:56.752Z,98341.88
2023-01-17T08:54:59.157Z,98326.97
2023-01-17T08:58:01.527Z,98322.16
2023-01-17T09:01:07.908Z,98333.13
2023-01-17T09:04:13.304Z,98345.28
2023-01-17T09:07:27.006Z,98348.38
2023-01-17T09:10:29.514Z,98350.63
2023-01-17T09:13:32.039Z,98340.84
2023-01-17T09:16:37.318Z,98343.09
2023-01-17T09:19:42.506Z,98341.56
2023-01-17T09:22:46.151Z,98359.38
2023-01-17T09:26:00.298Z,98375.25
2023-01-17T09:29:02.721Z,98382.16
2023-01-17T09:32:05.407Z,98381.59
2023-01-17T09:35:11.922Z,98371.00
2023-01-17T09:38:16.757Z,98386.47
2023-01-17T09:41:24.652Z,98395.47
2023-01-17T09:44:47.126Z,98393.41
2023-01-17T09:47:56.402Z,98384.66
2023-01-17T09:51:09.849Z,98393.28
2023-01-17T09:54:24.597Z,98407.59
2023-01-17T09:57:44.064Z,98412.69
2023-01-17T10:01:07.270Z,98410.00
2023-01-17T10:04:27.807Z,98415.41
2023-01-17T10:07:33.011Z,98421.19
2023-01-17T10:11:08.224Z,98438.53
2023-01-17T10:14:42.784Z,98431.59
2023-01-17T10:18:28.750Z,98435.25
2023-01-17T10:22:21.737Z,98429.31
2023-01-17T10:25:47.218Z,98429.28
2023-01-17T10:28:53.044Z,98439.72
2023-01-17T10:32:02.660Z,98432.63
2023-01-17T10:35:18.160Z,98422.91
2023-01-17T10:38:26.699Z,98415.59
2023-01-17T10:41:41.721Z,98417.19
2023-01-17T10:44:55.761Z,98396.59
2023-01-17T10:48:37.136Z,98404.09
2023-01-17T10:51:59.849Z,98396.28
2023-01-17T10:55:35.909Z,98396.78
2023-01-17T10:58:38.232Z,98392.56
2023-01-17T11:01:43.087Z,98383.50
2023-01-17T11:04:55.769Z,98364.41
2023-01-17T11:08:06.706Z,98372.88
2023-01-17T11:11:09.679Z,98364.97
2023-01-17T11:14:26.745Z,98354.91
2023-01-17T11:17:30.555Z,98354.78
2023-01-17T11:20:37.112Z,98352.16
2023-01-17T11:23:49.241Z,98353.50
2023-01-17T11:26:51.569Z,98351.81
2023-01-17T11:30:03.832Z,98349.66
2023-01-17T11:33:46.996Z,98334.78
2023-01-17T11:37:20.735Z,98336.59
2023-01-17T11:40:31.312Z,98332.66
2023-01-17T11:43:34.097Z,98318.13
2023-01-17T11:46:39.617Z,98301.44
2023-01-17T11:49:45.155Z,98308.25
2023-01-17T11:52:47.746Z,98300.13
2023-01-17T11:55:59.561Z,98302.19
2023-01-17T11:59:23.515Z,98300.03
2023-01-17T12:02:43.464Z,98313.25
2023-01-17T12:05:54.521Z,98330.28
2023-01-17T12:09:05.840Z,98351.63
2023-01-17T12:13:04.646Z,98336.59
2023-01-17T12:16:32.068Z,98346.06
2023-01-17T12:20:16.495Z,98352.66
2023-01-17T12:23:37.419Z,98350.06
2023-01-17T12:26:54.638Z,98346.53
2023-01-17T12:30:11.895Z,98341.81
2023-01-17T12:33:35.221Z,98349.59
2023-01-17T12:36:55.061Z,98348.94
2023-01-17T12:40:18.176Z,98342.84
2023-01-17T12:43:37.269Z,98343.66
2023-01-17T12:46:59.965Z,98338.16
2023-01-17T12:50:20.005Z,98338.47
2023-01-17T12:53:47.369Z,98339.97
2023-01-17T12:56:54.688Z,98347.53
2023-01-17T13:00:06.985Z,98338.25
2023-01-17T13:03:21.029Z,98336.13
2023-01-17T13:06:44.962Z,98335.44
2023-01-17T13:10:00.295Z,98328.84
2023-01-17T13:13:13.701Z,98334.44
2023-01-17T13:16:23.797Z,98327.97
2023-01-17T13:19:26.444Z,98337.59
2023-01-17T13:22:33.050Z,98330.78
2023-01-17T13:25:46.145Z,98337.47
2023-01-17T13:29:06.891Z,98335.63
2023-01-17T13:32:39.857Z,98342.78
2023-01-17T13:36:04.917Z,98346.97
2023-01-17T13:39:32.428Z,98353.44
2023-01-17T13:42:55.655Z,98342.31
2023-01-17T13:46:03.198Z,98332.63
2023-01-17T13:49:23.371Z,98331.41
2023-01-17T13:52:25.587Z,98317.50
2023-01-17T13:55:50.623Z,98333.25
2023-01-17T13:59:02.210Z,98318.91
2023-01-17T14:02:30.480Z,98312.91
2023-01-17T14:05:41.591Z,98293.16
2023-01-17T14:08:45.556Z,98284.34
2023-01-17T14:12:06.549Z,98284.22
2023-01-17T14:15:23.179Z,98272.97
2023-01-17T14:18:45.743Z,98258.16
2023-01-17T14:21:49.517Z,98255.38
2023-01-17T14:25:03.608Z,98254.31
2023-01-17T14:28:32.178Z,98249.97
2023-01-17T14:31:35.344Z,98242.72
2023-01-17T14:34:37.800Z,98239.31
2023-01-17T14:37:58.253Z,98225.78
2023-01-17T14:41:15.315Z,98219.59
2023-01-17T14:44:19.862Z,98196.94
2023-01-17T14:47:29.739Z,98204.50
2023-01-17T14:50:42.974Z,98222.22
2023-01-17T14:53:59.014Z,98208.50
2023-01-17T14:57:36.725Z,98207.13
2023-01-17T15:00:39.621Z,98202.50
2023-01-17T15:03:58.759Z,98203.56
2023-01-17T15:07:01.452Z,98203.84
2023-01-17T15:10:04.171Z,98195.09
2023-01-17T15:13:11.508Z,98195.06
2023-01-17T15:16:25.390Z,98189.34
2023-01-17T15:19:27.701Z,98189.66
2023-01-17T15:22:30.933Z,98200.78
2023-01-17T15:25:36.868Z,98191.84
2023-01-17T15:28:39.814Z,98197.09
2023-01-17T15:31:45.780Z,98199.84
2023-01-17T15:34:50.253Z,98187.22
2023-01-17T15:37:55.209Z,98193.84
2023-01-17T15:41:12.476Z,98182.59
2023-01-17T15:44:23.835Z,98175.81
2023-01-17T15:47:32.755Z,98159.63
2023-01-17T15:50:36.564Z,98169.50
2023-01-17T15:53:42.715Z,98156.09
2023-01-17T15:56:45.615Z,98151.81
2023-01-17T16:00:13.083Z,98156.09
2023-01-17T16:03:22.979Z,98154.25
2023-01-17T16:06:45.792Z,98155.63
2023-01-17T16:09:49.183Z,98145.44
2023-01-17T16:12:56.532Z,98137.59
2023-01-17T16:16:19.528Z,98137.91
2023-01-17T16:19:22.691Z,98133.16
2023-01-17T16:22:28.247Z,98142.69
2023-01-17T16:25:32.761Z,98145.44
2023-01-17T16:28:35.015Z,98146.06
2023-01-17T16:31:37.503Z,98139.91
2023-01-17T16:34:39.817Z,98124.81
2023-01-17T16:37:42.107Z,98119.09
2023-01-17T16:40:45.789Z,98118.97
2023-01-17T16:44:01.195Z,98116.63
2023-01-17T16:47:03.567Z,98119.06
2023-01-17T16:50:06.103Z,98101.56
2023-01-17T16:53:08.494Z,98101.72
2023-01-17T16:56:14.195Z,98112.13
2023-01-17T16:59:16.505Z,98098.69
2023-01-17T17:02:21.298Z,98094.66
2023-01-17T17:05:24.789Z,98088.59
2023-01-17T17:08:29.602Z,98096.38
2023-01-17T17:11:34.963Z,98096.47
2023-01-17T17:14:37.353Z,98091.94
2023-01-17T17:17:43.148Z,98077.28
2023-01-17T17:20:49.904Z,98075.50
2023-01-17T17:23:58.069Z,98067.38
2023-01-17T17:27:00.610Z,98059.50
2023-01-17T17:30:03.494Z,98058.38
2023-01-17T17:33:05.873Z,98043.28
2023-01-17T17:36:10.297Z,98044.25
2023-01-17T17:39:14.930Z,98053.56
2023-01-17T17:42:17.389Z,98041.59
2023-01-17T17:45:19.756Z,98034.66
2023-01-17T17:48:24.001Z,98023.91
2023-01-17T17:51:38.012Z,98007.75
2023-01-17T17:54:40.319Z,98003.31
2023-01-17T17:57:43.840Z,98002.06
2023-01-17T18:00:46.849Z,97992.66
2023-01-17T18:03:51.487Z,97989.00
2023-01-17T18:06:59.653Z,97977.66
2023-01-17T18:10:02.455Z,97959.06
2023-01-17T18:13:04.818Z,97966.00
2023-01-17T18:16:16.737Z,97950.34
2023-01-17T18:19:21.895Z,97941.72
2023-01-17T18:22:27.642Z,97937.84
2023-01-17T18:25:29.908Z,97939.41
2023-01-17T18:28:33.430Z,97921.41
2023-01-17T18:31:36.035Z,97917.41
2023-01-17T18:34:43.130Z,97912.47
2023-01-17T18:37:45.369Z,97917.19
2023-01-17T18:40:47.901Z,97898.44
2023-01-17T18:43:51.226Z,97908.41
2023-01-17T18:46:55.177Z,97909.28
2023-01-17T18:49:57.778Z,97894.88
2023-01-17T18:53:00.045Z,97890.59
2023-01-17T18:56:04.962Z,97883.56
2023-01-17T18:59:08.996Z,97878.78
2023-01-17T19:02:11.223Z,97867.44
2023-01-17T19:05:14.886Z,97870.03
2023-01-17T19:08:17.501Z,97854.84
2023-01-17T19:11:22.013Z,97844.19
2023-01-17T19:14:26.460Z,97848.38
2023-01-17T19:17:28.651Z,97838.84
2023-01-17T19:20:31.468Z,97824.81
2023-01-17T19:23:40.397Z,97824.50
2023-01-17T19:26:43.137Z,97825.56
2023-01-17T19:29:48.446Z,97810.81
2023-01-17T19:32:51.248Z,97810.53
2023-01-17T19:35:58.334Z,97797.78
2023-01-17T19:39:05.912Z,97798.53
2023-01-17T19:42:15.412Z,97779.53
2023-01-17T19:45:17.781Z,97775.50
2023-01-17T19:48:20.113Z,97759.09
2023-01-17T19:51:24.054Z,97747.53
2023-01-17T19:54:26.328Z,97741.25
2023-01-17T19:57:34.915Z,97738.91
2023-01-17T20:00:46.225Z,97719.56
2023-01-17T20:03:50.190Z,97716.34
2023-01-17T20:06:53.311Z,97707.09
2023-01-17T20:09:55.750Z,97702.31
2023-01-17T20:13:00.705Z,97710.13
2023-01-17T20:16:08.662Z,97697.25
2023-01-17T20:19:10.947Z,97698.97
2023-01-17T20:22:13.124Z,97710.28
2023-01-17T20:25:18.743Z,97713.97
2023-01-17T20:28:24.177Z,97718.41
2023-01-17T20:31:26.960Z,97709.50
2023-01-17T20:34:33.559Z,97697.88
2023-01-17T20:37:35.846Z,97685.25
2023-01-17T20:40:38.279Z,97701.31
2023-01-17T20:43:42.202Z,97698.94
2023-01-17T20:46:45.570Z,97702.75
2023-01-17T20:49:50.695Z,97685.22
2023-01-17T20:52:53.041Z,97687.50
2023-01-17T20:55:56.885Z,97678.56
2023-01-17T20:58:59.184Z,97679.31
2023-01-17T21:02:03.377Z,97664.88
2023-01-17T21:05:06.259Z,97660.66
2023-01-17T21:08:09.379Z,97689.19
2023-01-17T21:11:15.249Z,97686.06
2023-01-17T21:14:17.737Z,97666.13
2023-01-17T21:17:20.029Z,97616.19
2023-01-17T21:20:24.036Z,97590.94
2023-01-17T21:23:29.308Z,97589.53
2023-01-17T21:26:31.812Z,97611.38
2023-01-17T21:29:36.817Z,97614.56
2023-01-17T21:32:39.072Z,97594.06
2023-01-17T21:35:41.388Z,97584.25
2023-01-17T21:38:49.648Z,97580.28
2023-01-17T21:41:51.912Z,97571.81
2023-01-17T21:44:54.921Z,97559.72
2023-01-17T21:47:57.556Z,97550.78
2023-01-17T21:51:05.435Z,97547.31
2023-01-17T21:54:11.635Z,97574.72
2023-01-17T21:57:34.944Z,97577.81
2023-01-17T22:00:43.165Z,97557.19
2023-01-17T22:03:49.387Z,97541.28
2023-01-17T22:06:53.772Z,97548.03
2023-01-17T22:09:58.633Z,97548.03
2023-01-17T22:13:03.328Z,97552.94
2023-01-17T22:16:08.649Z,97526.63
2023-01-17T22:19:10.917Z,97518.66
2023-01-17T22:22:14.374Z,97516.81
2023-01-17T22:25:19.437Z,97514.38
2023-01-17T22:28:21.658Z,97514.09
2023-01-17T22:31:26.755Z,97508.91
2023-01-17T22:34:29.028Z,97513.03
2023-01-17T22:37:37.074Z,97516.28
2023-01-17T22:40:39.475Z,97529.75
2023-01-17T22:43:47.262Z,97529.31
2023-01-17T22:46:49.504Z,97533.94
2023-01-17T22:49:54.135Z,97540.50
2023-01-17T22:52:59.159Z,97543.00
2023-01-17T22:56:04.897Z,97551.72
2023-01-17T22:59:11.795Z,97545.47
2023-01-17T23:02:16.415Z,97538.31
2023-01-17T23:05:19.014Z,97530.66
2023-01-17T23:08:24.106Z,97527.47
2023-01-17T23:11:43.069Z,97526.88
2023-01-17T23:15:06.483Z,97536.53
2023-01-17T23:18:28.088Z,97534.69
2023-01-17T23:21:50.321Z,97533.78
2023-01-17T23:25:03.209Z,97542.41
2023-01-17T23:28:11.184Z,97535.38
2023-01-17T23:31:13.548Z,97543.19
2023-01-17T23:34:15.817Z,97551.00
2023-01-17T23:37:19.509Z,97559.00
2023-01-17T23:40:22.114Z,97555.63
2023-01-17T23:43:24.351Z,97551.06
2023-01-17T23:46:30.395Z,97554.31
2023-01-17T23:49:34.135Z,97554.94
2023-01-17T23:52:36.457Z,97543.72
2023-01-17T23:55:41.610Z,97552.44
2023-01-17T23:58:44.017Z,97564.91
